Harrington Harbour, Canada
Current Conditions -  °F | °C
As of 1:00 PM on Friday 19 Dec 2014 (Local Time) from CWDH Reporting Station
Overcast Overcast  
Wind Chill: 12°   Ceiling: Unl
Heat Index: 26°   Visibility: 0mi
Dew Point: 22°   Wind: 20mph
Humidity: 86%   Direction: 10°N
Pressure: 29.46"   Gusts: 28mph
Location:  50.52°N, 59.48°W
Report Text: CWDH 191700Z AUTO 01017G24KT M1/4SM OVC000 M03/M05 A2946 RMK SLP978 PK WND 01028/// T10331053 P0006 70043 WSI/SWOB
Loading
Personal Weather Stations






























Interactive Weather Map New forecast layout! Learn more

10-Day Weather Forecast

Advertisements
Track Severe Weather on mobile